Time;durP1;ratioP1;P1;durP2;ratioP2;P2;SDS_P1;SDS_P2;PMS_P1;PMS_P2;Temp;Humidity;BMP_temperature;BMP_pressure;BME280_temperature;BME280_humidity;BME280_pressure;Samples;Min_cycle;Max_cycle;Signal;HPM_P1;HPM_P2
2023/07/17 00:00:54;;;;;;;;;;;;;;;29.86;43.64;100910.30;102742;1297;62419;-81
2023/07/17 00:03:19;;;;;;;;;;;;;;;29.86;43.88;100907.59;102673;1295;62306;-81
2023/07/17 00:05:44;;;;;;;;;;;;;;;29.86;43.65;100905.57;102657;1291;62209;-81
2023/07/17 00:08:10;;;;;;;;;;;;;;;29.85;43.73;100901.62;102742;1292;62222;-81
2023/07/17 00:10:38;;;;;;;;;;;;;;;29.85;43.56;100894.78;102712;1291;62195;-81
2023/07/17 00:13:04;;;;;;;;;;;;;;;29.85;43.61;100895.50;102735;1292;64876;-81
2023/07/17 00:15:29;;;;;;;;;;;;;;;29.85;43.65;100897.84;102694;1291;62577;-81
2023/07/17 00:17:55;;;;;;;;;;;;;;;29.85;43.64;100900.97;102687;1291;63470;-81
2023/07/17 00:20:20;;;;;;;;;;;;;;;29.85;43.72;100900.05;102722;1291;62232;-81
2023/07/17 00:22:46;;;;;;;;;;;;;;;29.85;43.68;100896.65;102754;1291;62294;-81
2023/07/17 00:25:12;;;;;;;;;;;;;;;29.85;43.64;100898.99;102696;1292;63815;-81
2023/07/17 00:27:38;;;;;;;;;;;;;;;29.84;43.71;100897.18;102706;1291;62234;-81
2023/07/17 00:30:03;;;;;;;;;;;;;;;29.84;43.68;100898.48;102725;1292;62357;-81
2023/07/17 00:32:29;;;;;;;;;;;;;;;29.84;43.67;100902.13;102695;1291;62986;-81
2023/07/17 00:34:54;;;;;;;;;;;;;;;29.84;43.66;100904.29;102732;1292;62230;-81
2023/07/17 00:37:20;;;;;;;;;;;;;;;29.84;43.76;100903.95;102693;1296;64900;-81
2023/07/17 00:39:46;;;;;;;;;;;;;;;29.84;43.63;100903.23;102658;1291;62292;-81
2023/07/17 00:42:12;;;;;;;;;;;;;;;29.84;43.73;100902.54;102765;1297;62472;-81
2023/07/17 00:44:38;;;;;;;;;;;;;;;29.84;43.79;100903.82;102709;1291;62210;-80
2023/07/17 00:47:04;;;;;;;;;;;;;;;29.83;43.68;100905.29;102738;1297;62152;-81
2023/07/17 00:49:30;;;;;;;;;;;;;;;29.83;43.75;100907.46;102762;1291;62258;-81
2023/07/17 00:51:55;;;;;;;;;;;;;;;29.83;43.79;100906.58;102752;1294;63371;-81
2023/07/17 00:54:21;;;;;;;;;;;;;;;29.83;43.66;100908.39;102696;1291;62194;-81
2023/07/17 00:56:46;;;;;;;;;;;;;;;29.83;43.75;100903.02;102772;1291;63383;-81
2023/07/17 00:59:12;;;;;;;;;;;;;;;29.83;43.68;100901.92;102717;1297;62147;-81
2023/07/17 01:01:37;;;;;;;;;;;;;;;29.83;43.85;100902.05;102745;1297;62337;-81
2023/07/17 01:04:04;;;;;;;;;;;;;;;29.83;43.70;100905.52;102711;1291;62879;-81
2023/07/17 01:06:30;;;;;;;;;;;;;;;29.82;43.63;100899.80;102734;1292;62208;-81
2023/07/17 01:08:59;;;;;;;;;;;;;;;29.82;43.73;100900.52;102728;1294;62294;-81
2023/07/17 01:11:24;;;;;;;;;;;;;;;29.82;43.72;100897.77;102677;1296;64649;-81
2023/07/17 01:13:50;;;;;;;;;;;;;;;29.82;43.62;100898.74;102710;1292;62294;-81
2023/07/17 01:16:15;;;;;;;;;;;;;;;29.82;43.67;100903.61;102761;1293;62324;-81
2023/07/17 01:18:41;;;;;;;;;;;;;;;29.82;43.64;100900.15;102722;1292;62186;-81
2023/07/17 01:21:08;;;;;;;;;;;;;;;29.81;43.58;100897.86;102776;1291;62205;-81
2023/07/17 01:23:34;;;;;;;;;;;;;;;29.81;43.61;100898.61;102721;1293;64671;-81
2023/07/17 01:26:00;;;;;;;;;;;;;;;29.82;43.69;100895.30;102769;1292;62304;-81
2023/07/17 01:28:25;;;;;;;;;;;;;;;29.82;43.78;100894.93;102720;1293;63416;-81
2023/07/17 01:30:51;;;;;;;;;;;;;;;29.82;43.63;100896.77;102736;1291;62201;-81
2023/07/17 01:33:17;;;;;;;;;;;;;;;29.81;43.73;100893.54;102687;1297;62201;-81
2023/07/17 01:35:43;;;;;;;;;;;;;;;29.81;43.60;100891.91;102801;1291;62805;-81
2023/07/17 01:38:08;;;;;;;;;;;;;;;29.81;43.66;100892.11;102748;1297;66782;-81
2023/07/17 01:40:34;;;;;;;;;;;;;;;29.81;43.78;100895.00;102719;1291;62195;-81
2023/07/17 01:43:00;;;;;;;;;;;;;;;29.81;43.69;100899.90;102716;1291;62242;-81
2023/07/17 01:45:25;;;;;;;;;;;;;;;29.81;43.71;100897.76;102719;1291;62316;-81
2023/07/17 01:47:50;;;;;;;;;;;;;;;29.81;43.69;100899.19;102723;1293;62202;-81
2023/07/17 01:50:16;;;;;;;;;;;;;;;29.81;43.66;100900.34;102748;1291;67818;-81
2023/07/17 01:52:41;;;;;;;;;;;;;;;29.81;43.69;100900.48;102681;1291;63475;-81
2023/07/17 01:55:07;;;;;;;;;;;;;;;29.81;43.59;100907.41;102733;1291;62175;-81
2023/07/17 01:57:32;;;;;;;;;;;;;;;29.80;43.72;100907.61;102663;1296;62201;-81
2023/07/17 01:59:58;;;;;;;;;;;;;;;29.80;43.51;100913.02;102729;1291;62279;-81
2023/07/17 02:02:24;;;;;;;;;;;;;;;29.81;43.77;100909.05;102664;1291;62116;-81
2023/07/17 02:04:50;;;;;;;;;;;;;;;29.80;43.77;100911.13;102716;1295;62265;-81
2023/07/17 02:07:15;;;;;;;;;;;;;;;29.80;43.61;100911.33;102692;1291;62261;-81
2023/07/17 02:09:40;;;;;;;;;;;;;;;29.80;43.76;100910.74;102725;1291;62263;-81
2023/07/17 02:12:06;;;;;;;;;;;;;;;29.80;43.58;100910.98;102800;1291;62211;-81
2023/07/17 02:14:33;;;;;;;;;;;;;;;29.80;43.62;100911.70;102765;1291;67880;-81
2023/07/17 02:16:58;;;;;;;;;;;;;;;29.80;43.76;100913.46;102718;1293;62255;-81
2023/07/17 02:19:23;;;;;;;;;;;;;;;29.79;43.63;100909.55;102706;1291;63513;-81
2023/07/17 02:21:49;;;;;;;;;;;;;;;29.79;43.69;100911.77;102813;1297;62106;-82
2023/07/17 02:24:14;;;;;;;;;;;;;;;29.79;43.57;100912.44;102716;1291;62204;-81
2023/07/17 02:26:40;;;;;;;;;;;;;;;29.79;43.62;100911.89;102689;1291;62274;-81
2023/07/17 02:29:06;;;;;;;;;;;;;;;29.79;43.51;100906.29;102763;1291;63567;-81
2023/07/17 02:31:31;;;;;;;;;;;;;;;29.79;43.67;100905.27;102704;1291;62238;-81
2023/07/17 02:33:57;;;;;;;;;;;;;;;29.79;43.61;100907.06;102683;1292;63463;-81
2023/07/17 02:36:22;;;;;;;;;;;;;;;29.78;43.56;100909.84;102759;1296;62213;-81
2023/07/17 02:38:48;;;;;;;;;;;;;;;29.79;43.52;100907.98;102698;1292;66427;-81
2023/07/17 02:41:14;;;;;;;;;;;;;;;29.78;43.53;100912.17;102754;1291;62296;-81
2023/07/17 02:43:39;;;;;;;;;;;;;;;29.78;43.52;100917.83;102671;1292;63377;-81
2023/07/17 02:46:05;;;;;;;;;;;;;;;29.78;43.58;100917.11;102650;1291;63513;-81
2023/07/17 02:48:30;;;;;;;;;;;;;;;29.78;43.67;100916.04;102652;1296;62665;-81
2023/07/17 02:50:56;;;;;;;;;;;;;;;29.78;43.74;100914.41;102780;1291;62333;-81
2023/07/17 02:53:21;;;;;;;;;;;;;;;29.78;43.68;100914.82;102798;1291;63386;-81
2023/07/17 02:55:47;;;;;;;;;;;;;;;29.78;43.59;100915.29;102692;1291;62271;-81
2023/07/17 02:58:16;;;;;;;;;;;;;;;29.78;43.57;100921.11;102707;1291;62229;-81
2023/07/17 03:00:42;;;;;;;;;;;;;;;29.78;43.60;100921.29;102746;1291;67340;-81
2023/07/17 03:03:10;;;;;;;;;;;;;;;29.78;43.58;100921.14;102736;1297;63383;-81
2023/07/17 03:05:36;;;;;;;;;;;;;;;29.78;43.59;100920.77;102732;1291;62179;-81
2023/07/17 03:08:02;;;;;;;;;;;;;;;29.77;43.63;100920.63;102707;1292;63469;-81
2023/07/17 03:10:28;;;;;;;;;;;;;;;29.78;43.60;100923.30;102740;1292;62220;-81
2023/07/17 03:12:53;;;;;;;;;;;;;;;29.78;43.65;100922.38;102683;1296;62098;-81
2023/07/17 03:15:18;;;;;;;;;;;;;;;29.78;43.67;100921.46;102697;1291;62621;-81
2023/07/17 03:17:44;;;;;;;;;;;;;;;29.78;43.59;100921.08;102779;1291;63357;-81
2023/07/17 03:20:10;;;;;;;;;;;;;;;29.78;43.66;100915.67;102686;1291;62294;-81
2023/07/17 03:22:36;;;;;;;;;;;;;;;29.78;43.45;100922.40;102699;1297;62240;-81
2023/07/17 03:25:02;;;;;;;;;;;;;;;29.78;43.65;100927.48;102774;1291;62326;-81
2023/07/17 03:27:28;;;;;;;;;;;;;;;29.78;43.63;100931.27;102754;1291;62353;-81
2023/07/17 03:29:53;;;;;;;;;;;;;;;29.78;43.63;100936.49;102705;1291;62316;-81
2023/07/17 03:32:19;;;;;;;;;;;;;;;29.79;43.62;100938.80;102821;1291;63490;-81
2023/07/17 03:34:44;;;;;;;;;;;;;;;29.79;43.55;100942.23;102706;1295;66491;-81
2023/07/17 03:37:10;;;;;;;;;;;;;;;29.78;43.57;100944.89;102709;1291;62643;-81
2023/07/17 03:39:35;;;;;;;;;;;;;;;29.78;43.43;100952.30;102766;1292;62221;-81
2023/07/17 03:42:01;;;;;;;;;;;;;;;29.79;43.56;100955.17;102774;1297;62270;-80
2023/07/17 03:44:26;;;;;;;;;;;;;;;29.78;43.60;100952.81;102800;1291;62246;-81
2023/07/17 03:46:52;;;;;;;;;;;;;;;29.79;43.64;100952.44;102678;1291;62229;-80
2023/07/17 03:49:17;;;;;;;;;;;;;;;29.79;43.70;100951.15;102714;1296;62224;-80
2023/07/17 03:51:42;;;;;;;;;;;;;;;29.79;43.67;100955.88;102720;1291;63493;-80
2023/07/17 03:54:09;;;;;;;;;;;;;;;29.79;43.46;100956.80;102747;1297;62262;-81
2023/07/17 03:56:36;;;;;;;;;;;;;;;29.79;43.48;100957.34;102698;1291;62195;-81
2023/07/17 03:59:01;;;;;;;;;;;;;;;29.79;43.45;100964.59;102760;1292;62977;-81
2023/07/17 04:01:27;;;;;;;;;;;;;;;29.79;43.72;100967.66;102729;1291;63339;-81
2023/07/17 04:03:52;;;;;;;;;;;;;;;29.79;43.76;100969.10;102771;1291;62093;-81
2023/07/17 04:06:18;;;;;;;;;;;;;;;29.79;43.64;100970.70;102754;1295;62207;-81
2023/07/17 04:08:43;;;;;;;;;;;;;;;29.79;43.58;100971.61;102687;1291;63570;-80
2023/07/17 04:11:09;;;;;;;;;;;;;;;29.79;43.62;100969.69;102721;1291;62196;-80
2023/07/17 04:13:35;;;;;;;;;;;;;;;29.78;43.57;100971.86;102803;1295;62233;-81
2023/07/17 04:16:00;;;;;;;;;;;;;;;29.78;43.61;100969.18;102724;1291;62101;-81
2023/07/17 04:18:26;;;;;;;;;;;;;;;29.78;43.67;100972.45;102733;1291;63509;-81
2023/07/17 04:20:51;;;;;;;;;;;;;;;29.78;43.57;100973.89;102766;1291;62222;-81
2023/07/17 04:23:17;;;;;;;;;;;;;;;29.77;43.57;100975.96;102708;1291;62212;-81
2023/07/17 04:25:42;;;;;;;;;;;;;;;29.77;43.61;100969.67;102877;1291;62221;-81
2023/07/17 04:28:08;;;;;;;;;;;;;;;29.77;43.69;100970.73;102708;1291;62118;-81
2023/07/17 04:30:36;;;;;;;;;;;;;;;29.77;43.54;100971.98;103018;1291;62283;-81
2023/07/17 04:33:02;;;;;;;;;;;;;;;29.77;43.59;100974.38;102807;1292;66578;-81
2023/07/17 04:35:27;;;;;;;;;;;;;;;29.76;43.54;100974.58;102772;1295;62908;-81
2023/07/17 04:37:54;;;;;;;;;;;;;;;29.77;43.46;100975.27;102689;1291;62314;-81
2023/07/17 04:40:19;;;;;;;;;;;;;;;29.77;43.42;100969.82;102743;1291;62226;-80
2023/07/17 04:42:45;;;;;;;;;;;;;;;29.77;43.37;100967.64;102767;1291;63481;-80
2023/07/17 04:45:12;;;;;;;;;;;;;;;29.77;43.39;100967.09;102777;1291;62224;-80
2023/07/17 04:47:38;;;;;;;;;;;;;;;29.78;43.34;100966.48;102765;1296;62742;-81
2023/07/17 04:50:04;;;;;;;;;;;;;;;29.78;43.23;100969.92;102798;1291;62201;-81
2023/07/17 04:52:30;;;;;;;;;;;;;;;29.78;43.30;100968.81;102787;1291;63386;-81
2023/07/17 04:54:55;;;;;;;;;;;;;;;29.79;43.17;100966.04;102755;1291;62257;-81
2023/07/17 04:57:21;;;;;;;;;;;;;;;29.79;43.16;100967.09;102840;1291;62108;-81
2023/07/17 04:59:47;;;;;;;;;;;;;;;29.80;43.19;100970.80;102710;1291;63327;-81
2023/07/17 05:02:12;;;;;;;;;;;;;;;29.80;43.08;100975.09;102775;1291;63256;-81
2023/07/17 05:04:38;;;;;;;;;;;;;;;29.81;43.15;100977.04;102779;1291;62845;-81
2023/07/17 05:07:03;;;;;;;;;;;;;;;29.81;42.99;100978.06;102904;1296;62192;-81
2023/07/17 05:09:29;;;;;;;;;;;;;;;29.81;43.05;100976.80;102791;1291;62298;-81
2023/07/17 05:11:55;;;;;;;;;;;;;;;29.82;43.09;100976.70;102826;1291;62262;-81
2023/07/17 05:14:21;;;;;;;;;;;;;;;29.83;42.99;100977.37;102936;1291;62214;-81
2023/07/17 05:16:46;;;;;;;;;;;;;;;29.83;42.87;100977.13;102818;1297;63871;-81
2023/07/17 05:19:11;;;;;;;;;;;;;;;29.84;42.89;100978.89;102732;1291;62890;-81
2023/07/17 05:21:37;;;;;;;;;;;;;;;29.85;42.82;100982.95;102727;1291;62288;-81
2023/07/17 05:24:02;;;;;;;;;;;;;;;29.85;42.87;100979.27;103182;1291;62172;-81
2023/07/17 05:26:28;;;;;;;;;;;;;;;29.86;42.77;100980.13;103072;1291;62391;-81
2023/07/17 05:28:53;;;;;;;;;;;;;;;29.87;42.75;100980.02;102811;1295;63316;-80
2023/07/17 05:31:19;;;;;;;;;;;;;;;29.87;42.64;100987.45;103311;1291;62189;-81
2023/07/17 05:33:44;;;;;;;;;;;;;;;29.88;42.57;100992.21;103394;1291;62326;-81
2023/07/17 05:36:10;;;;;;;;;;;;;;;29.89;42.59;100993.06;102815;1294;62138;-81
2023/07/17 05:38:35;;;;;;;;;;;;;;;29.90;42.55;100997.70;102805;1291;62229;-81
2023/07/17 05:41:01;;;;;;;;;;;;;;;29.91;42.61;100997.23;102794;1296;62137;-81
2023/07/17 05:43:26;;;;;;;;;;;;;;;29.91;42.47;101000.21;102729;1291;62214;-81
2023/07/17 05:45:52;;;;;;;;;;;;;;;29.92;42.37;100998.16;102785;1291;63805;-81
2023/07/17 05:48:18;;;;;;;;;;;;;;;29.92;42.31;100999.02;102929;1291;63366;-81
2023/07/17 05:50:43;;;;;;;;;;;;;;;29.94;42.32;101004.15;103390;1291;62240;-81
2023/07/17 05:53:09;;;;;;;;;;;;;;;29.95;42.24;101007.54;103130;1291;64864;-81
2023/07/17 05:55:34;;;;;;;;;;;;;;;29.96;42.29;101003.26;103191;1292;63498;-81
2023/07/17 05:57:59;;;;;;;;;;;;;;;29.96;42.17;101006.84;103193;1291;62240;-80
2023/07/17 06:00:25;;;;;;;;;;;;;;;29.98;42.05;101005.41;103111;1291;62180;-80
2023/07/17 06:02:50;;;;;;;;;;;;;;;29.99;41.96;101006.40;102907;1291;62268;-80
2023/07/17 06:05:17;;;;;;;;;;;;;;;29.99;41.97;101007.55;103103;1291;62153;-80
2023/07/17 06:07:42;;;;;;;;;;;;;;;30.00;41.98;101007.25;102770;1291;62152;-80
2023/07/17 06:10:08;;;;;;;;;;;;;;;30.01;41.96;101005.17;103005;1291;63471;-80
2023/07/17 06:12:33;;;;;;;;;;;;;;;30.02;41.94;101008.39;103215;1291;63472;-80
2023/07/17 06:14:59;;;;;;;;;;;;;;;30.03;41.75;101003.77;103165;1291;62115;-81
2023/07/17 06:17:24;;;;;;;;;;;;;;;30.03;41.81;101004.98;103063;1291;65169;-81
2023/07/17 06:19:50;;;;;;;;;;;;;;;30.05;41.69;101004.11;102869;1296;62198;-81
2023/07/17 06:22:15;;;;;;;;;;;;;;;30.05;41.63;101004.21;102968;1291;62195;-81
2023/07/17 06:24:41;;;;;;;;;;;;;;;30.05;41.58;101007.27;103198;1291;62266;-81
2023/07/17 06:27:07;;;;;;;;;;;;;;;30.06;41.63;101007.04;103264;1291;62748;-81
2023/07/17 06:29:33;;;;;;;;;;;;;;;30.07;41.65;101004.25;103507;1296;62007;-81
2023/07/17 06:31:58;;;;;;;;;;;;;;;30.08;41.43;101002.69;103342;1292;62261;-81
2023/07/17 06:34:24;;;;;;;;;;;;;;;30.08;41.52;100998.98;103133;1291;62214;-81
2023/07/17 06:36:50;;;;;;;;;;;;;;;30.09;41.44;100996.77;103073;1291;62210;-81
2023/07/17 06:39:16;;;;;;;;;;;;;;;30.10;41.48;100997.72;103083;1292;62533;-81
2023/07/17 06:41:41;;;;;;;;;;;;;;;30.11;41.35;101000.55;103157;1293;62696;-81
2023/07/17 06:44:06;;;;;;;;;;;;;;;30.11;41.38;101000.19;102964;1291;62204;-81
2023/07/17 06:46:32;;;;;;;;;;;;;;;30.12;41.32;100995.35;102792;1293;62117;-81
2023/07/17 06:48:57;;;;;;;;;;;;;;;30.13;41.32;100997.42;102905;1291;62661;-81
2023/07/17 06:51:23;;;;;;;;;;;;;;;30.14;41.15;101000.05;102703;1292;63501;-81
2023/07/17 06:53:49;;;;;;;;;;;;;;;30.14;41.14;100996.27;102919;1297;63405;-81
2023/07/17 06:56:14;;;;;;;;;;;;;;;30.14;41.22;100991.48;102853;1291;63424;-81
2023/07/17 06:58:39;;;;;;;;;;;;;;;30.13;41.06;100993.20;102930;1297;62114;-81
2023/07/17 07:01:05;;;;;;;;;;;;;;;30.14;41.03;100994.03;102853;1291;63780;-81
2023/07/17 07:03:31;;;;;;;;;;;;;;;30.14;40.95;100995.33;102828;1291;63111;-81
2023/07/17 07:05:57;;;;;;;;;;;;;;;30.15;40.91;100994.52;103244;1291;62656;-82
2023/07/17 07:08:26;;;;;;;;;;;;;;;30.15;40.95;100995.90;102739;1291;691077;-81
2023/07/17 07:10:52;;;;;;;;;;;;;;;30.15;40.89;100993.92;104681;1291;62087;-81
2023/07/17 07:13:17;;;;;;;;;;;;;;;30.16;40.93;100993.99;103127;1291;62189;-81
2023/07/17 07:15:43;;;;;;;;;;;;;;;30.16;40.93;100993.06;102816;1297;62121;-81
2023/07/17 07:18:08;;;;;;;;;;;;;;;30.16;40.84;100993.77;102818;1297;62283;-81
2023/07/17 07:20:34;;;;;;;;;;;;;;;30.16;40.90;100992.67;102952;1294;63256;-81
2023/07/17 07:22:59;;;;;;;;;;;;;;;30.17;40.60;100988.83;103018;1292;62195;-81
2023/07/17 07:25:25;;;;;;;;;;;;;;;30.17;40.74;100991.70;103111;1292;62214;-81
2023/07/17 07:27:51;;;;;;;;;;;;;;;30.17;40.59;100987.00;103176;1294;63358;-81
2023/07/17 07:30:16;;;;;;;;;;;;;;;30.17;40.53;100982.98;102860;1291;62278;-82
2023/07/17 07:32:42;;;;;;;;;;;;;;;30.18;40.53;100986.55;102925;1297;62242;-81
2023/07/17 07:35:07;;;;;;;;;;;;;;;30.18;40.37;100979.48;102739;1293;62218;-81
2023/07/17 07:37:33;;;;;;;;;;;;;;;30.18;40.49;100979.48;102856;1291;62399;-81
2023/07/17 07:39:58;;;;;;;;;;;;;;;30.18;40.21;100977.64;102890;1297;62281;-81
2023/07/17 07:42:24;;;;;;;;;;;;;;;30.18;39.97;100977.06;103026;1291;63372;-81
2023/07/17 07:44:49;;;;;;;;;;;;;;;30.18;40.00;100978.11;103300;1291;62203;-81
2023/07/17 07:47:15;;;;;;;;;;;;;;;30.19;39.75;100975.19;102737;1297;62153;-81
2023/07/17 07:49:40;;;;;;;;;;;;;;;30.19;39.79;100973.02;102715;1291;62354;-80
2023/07/17 07:52:06;;;;;;;;;;;;;;;30.19;39.69;100971.92;102724;1291;63494;-80
2023/07/17 07:54:32;;;;;;;;;;;;;;;30.19;39.86;100970.29;102796;1291;63471;-81
2023/07/17 07:56:58;;;;;;;;;;;;;;;30.19;39.87;100971.48;102795;1297;62296;-81
2023/07/17 07:59:24;;;;;;;;;;;;;;;30.19;39.67;100974.20;102924;1291;62235;-81
2023/07/17 08:01:49;;;;;;;;;;;;;;;30.21;39.40;100979.48;102895;1292;64720;-80
2023/07/17 08:04:15;;;;;;;;;;;;;;;30.22;39.40;100978.05;103017;1291;62210;-80
2023/07/17 08:06:40;;;;;;;;;;;;;;;30.22;39.46;100976.42;102905;1291;63265;-80
2023/07/17 08:09:05;;;;;;;;;;;;;;;30.23;39.52;100974.56;103274;1295;62359;-81
2023/07/17 08:11:31;;;;;;;;;;;;;;;30.23;39.25;100973.48;103123;1291;62199;-81
2023/07/17 08:13:56;;;;;;;;;;;;;;;30.23;39.26;100974.33;102897;1291;62247;-80
2023/07/17 08:16:22;;;;;;;;;;;;;;;30.23;39.41;100974.12;102897;1294;62674;-80
2023/07/17 08:18:47;;;;;;;;;;;;;;;30.24;39.38;100973.04;102843;1291;62261;-80
2023/07/17 08:21:13;;;;;;;;;;;;;;;30.24;39.31;100974.79;102752;1291;62269;-80
2023/07/17 08:23:38;;;;;;;;;;;;;;;30.25;39.21;100973.41;102811;1291;62166;-80
2023/07/17 08:26:04;;;;;;;;;;;;;;;30.25;39.03;100977.02;102900;1291;62286;-80
2023/07/17 08:28:30;;;;;;;;;;;;;;;30.26;39.10;100972.95;102983;1291;62149;-80
2023/07/17 08:30:55;;;;;;;;;;;;;;;30.26;39.07;100972.20;103141;1291;62194;-80
2023/07/17 08:33:21;;;;;;;;;;;;;;;30.26;38.90;100967.66;102914;1291;62292;-80
2023/07/17 08:35:51;;;;;;;;;;;;;;;30.27;38.73;100967.93;103085;1291;62201;-81
2023/07/17 08:38:16;;;;;;;;;;;;;;;30.30;38.49;100967.70;103036;1291;62201;-80
2023/07/17 08:40:41;;;;;;;;;;;;;;;30.31;38.43;100968.45;103084;1291;62220;-81
2023/07/17 08:43:07;;;;;;;;;;;;;;;30.31;38.55;100968.91;103251;1291;62293;-80
2023/07/17 08:45:35;;;;;;;;;;;;;;;30.32;38.46;100966.02;102792;1291;62522;-80
2023/07/17 08:48:00;;;;;;;;;;;;;;;30.32;38.43;100964.40;102688;1291;62276;-80
2023/07/17 08:50:26;;;;;;;;;;;;;;;30.31;38.69;100959.94;102729;1291;62965;-80
2023/07/17 08:52:52;;;;;;;;;;;;;;;30.31;38.64;100960.31;103090;1291;63501;-81
2023/07/17 08:55:17;;;;;;;;;;;;;;;30.30;38.80;100962.89;103300;1292;62118;-81
2023/07/17 08:57:44;;;;;;;;;;;;;;;30.31;38.53;100955.20;103335;1292;62196;-81
2023/07/17 09:00:15;;;;;;;;;;;;;;;30.31;38.35;100953.50;103049;1297;62134;-81
2023/07/17 09:02:44;;;;;;;;;;;;;;;30.32;38.28;100951.06;105490;1291;62067;-81
2023/07/17 09:05:10;;;;;;;;;;;;;;;30.33;38.26;100948.98;102900;1294;62305;-81
2023/07/17 09:07:35;;;;;;;;;;;;;;;30.33;38.33;100946.77;102890;1291;62224;-81
2023/07/17 09:10:12;;;;;;;;;;;;;;;30.33;38.60;100943.48;102885;1291;66972;-81
2023/07/17 09:12:40;;;;;;;;;;;;;;;30.33;38.49;100943.46;102922;1291;62185;-81
2023/07/17 09:15:06;;;;;;;;;;;;;;;30.34;38.46;100944.34;102910;1291;62082;-81
2023/07/17 09:17:32;;;;;;;;;;;;;;;30.34;38.55;100942.17;102771;1296;62224;-81
2023/07/17 09:20:10;;;;;;;;;;;;;;;30.33;38.59;100940.81;102861;1291;62231;-81
2023/07/17 09:22:35;;;;;;;;;;;;;;;30.33;38.60;100940.60;102849;1294;62138;-81
2023/07/17 09:25:01;;;;;;;;;;;;;;;30.34;38.29;100940.33;102956;1291;62269;-81
2023/07/17 09:27:26;;;;;;;;;;;;;;;30.37;37.97;100937.86;103039;1297;62606;-81
2023/07/17 09:29:52;;;;;;;;;;;;;;;30.38;38.06;100938.23;103463;1292;62201;-81
2023/07/17 09:32:22;;;;;;;;;;;;;;;30.38;37.97;100936.21;102919;1294;62221;-81
2023/07/17 09:35:03;;;;;;;;;;;;;;;30.38;38.00;100934.06;103169;1293;62091;-81
2023/07/17 09:37:32;;;;;;;;;;;;;;;30.36;38.18;100935.16;103129;1297;62156;-81
2023/07/17 09:40:07;;;;;;;;;;;;;;;30.35;38.29;100927.43;103204;1297;65023;-81
2023/07/17 09:42:41;;;;;;;;;;;;;;;30.35;38.27;100925.66;103000;1291;67543;-81
2023/07/17 09:45:06;;;;;;;;;;;;;;;30.35;38.40;100924.27;103205;1291;62783;-81
2023/07/17 09:47:32;;;;;;;;;;;;;;;30.35;38.51;100925.02;103035;1291;62141;-81
2023/07/17 09:49:58;;;;;;;;;;;;;;;30.35;38.55;100920.13;103243;1295;62272;-81
2023/07/17 09:52:24;;;;;;;;;;;;;;;30.34;38.66;100920.39;103082;1296;63249;-81
2023/07/17 09:54:51;;;;;;;;;;;;;;;30.33;38.70;100918.81;103011;1297;62212;-81
2023/07/17 09:57:21;;;;;;;;;;;;;;;30.33;38.63;100918.09;103214;1291;62286;-81
2023/07/17 09:59:46;;;;;;;;;;;;;;;30.33;38.61;100917.17;102975;1294;63277;-81
2023/07/17 10:02:15;;;;;;;;;;;;;;;30.33;38.74;100916.29;102911;1291;63458;-81
2023/07/17 10:04:42;;;;;;;;;;;;;;;30.33;38.83;100914.70;102899;1297;62231;-81
2023/07/17 10:07:07;;;;;;;;;;;;;;;30.32;38.67;100912.75;102885;1291;62165;-81
2023/07/17 10:09:33;;;;;;;;;;;;;;;30.32;38.73;100913.30;103018;1291;62310;-81
2023/07/17 10:11:59;;;;;;;;;;;;;;;30.32;38.84;100912.08;103158;1297;62151;-81
2023/07/17 10:14:26;;;;;;;;;;;;;;;30.32;38.75;100909.39;102850;1296;62265;-81
2023/07/17 10:16:51;;;;;;;;;;;;;;;30.31;38.77;100906.33;103146;1291;62889;-81
2023/07/17 10:19:17;;;;;;;;;;;;;;;30.31;38.80;100907.65;102903;1294;62296;-81
2023/07/17 10:21:55;;;;;;;;;;;;;;;30.30;38.87;100905.89;103149;1297;62192;-81
2023/07/17 10:24:24;;;;;;;;;;;;;;;30.30;38.85;100898.29;102912;1291;66707;-81
2023/07/17 10:26:49;;;;;;;;;;;;;;;30.30;38.92;100894.65;103023;1291;62883;-81
2023/07/17 10:29:15;;;;;;;;;;;;;;;30.30;38.92;100893.94;102978;1291;63444;-81
2023/07/17 10:31:49;;;;;;;;;;;;;;;30.30;38.85;100894.85;102931;1292;62235;-81
2023/07/17 10:34:15;;;;;;;;;;;;;;;30.30;38.94;100892.55;102974;1292;67617;-81
2023/07/17 10:36:40;;;;;;;;;;;;;;;30.29;38.95;100883.83;103266;1291;62189;-81
2023/07/17 10:39:07;;;;;;;;;;;;;;;30.30;38.91;100879.84;103251;1296;62284;-81
2023/07/17 10:41:32;;;;;;;;;;;;;;;30.29;38.98;100880.95;103242;1295;62014;-81
2023/07/17 10:43:58;;;;;;;;;;;;;;;30.29;39.04;100873.17;103238;1291;63496;-81
2023/07/17 10:46:27;;;;;;;;;;;;;;;30.29;39.06;100868.06;103262;1291;62120;-81
2023/07/17 10:48:54;;;;;;;;;;;;;;;30.29;38.95;100868.78;103513;1295;62174;-81
2023/07/17 10:51:19;;;;;;;;;;;;;;;30.29;38.94;100866.05;103057;1292;62221;-81
2023/07/17 10:53:44;;;;;;;;;;;;;;;30.29;38.99;100862.80;103311;1291;62087;-81
2023/07/17 10:56:10;;;;;;;;;;;;;;;30.29;39.05;100863.53;103387;1297;62232;-81
2023/07/17 10:58:35;;;;;;;;;;;;;;;30.30;39.07;100864.23;103065;1291;62138;-81
2023/07/17 11:01:05;;;;;;;;;;;;;;;30.30;38.88;100863.64;103023;1297;63373;-81
2023/07/17 11:03:30;;;;;;;;;;;;;;;30.30;38.83;100859.60;102985;1295;62169;-81
2023/07/17 11:05:56;;;;;;;;;;;;;;;30.30;38.95;100858.71;102784;1291;62281;-81
2023/07/17 11:08:24;;;;;;;;;;;;;;;30.30;38.90;100860.89;102755;1297;63286;-81
2023/07/17 11:10:49;;;;;;;;;;;;;;;30.30;38.92;100858.41;102907;1291;62756;-81
2023/07/17 11:13:15;;;;;;;;;;;;;;;30.29;38.88;100853.16;103071;1294;62280;-81
2023/07/17 11:15:42;;;;;;;;;;;;;;;30.30;38.95;100853.88;103052;1291;62303;-81
2023/07/17 11:18:07;;;;;;;;;;;;;;;30.30;39.05;100859.67;103165;1291;62115;-81
2023/07/17 11:20:33;;;;;;;;;;;;;;;30.29;38.91;100851.52;103161;1296;63254;-81
2023/07/17 11:23:00;;;;;;;;;;;;;;;30.30;38.91;100852.41;103178;1291;62147;-81
2023/07/17 11:25:28;;;;;;;;;;;;;;;30.30;38.96;100853.84;103092;1291;62188;-81
2023/07/17 11:27:54;;;;;;;;;;;;;;;30.30;38.97;100851.63;102897;1296;63282;-81
2023/07/17 11:30:27;;;;;;;;;;;;;;;30.31;38.91;100851.05;102881;1297;62224;-81
2023/07/17 11:33:02;;;;;;;;;;;;;;;30.30;38.94;100850.85;102823;1295;62183;-81
2023/07/17 11:35:40;;;;;;;;;;;;;;;30.31;38.96;100849.92;102865;1295;65247;-82
2023/07/17 11:38:06;;;;;;;;;;;;;;;30.31;38.94;100842.63;102736;1291;66437;-81
2023/07/17 11:40:32;;;;;;;;;;;;;;;30.31;38.92;100841.38;102730;1296;62278;-81
2023/07/17 11:42:58;;;;;;;;;;;;;;;30.31;38.92;100840.29;102741;1291;63313;-81
2023/07/17 11:45:24;;;;;;;;;;;;;;;30.31;38.95;100838.70;102700;1296;62101;-81
2023/07/17 11:47:50;;;;;;;;;;;;;;;30.31;38.95;100835.22;102705;1291;62221;-81
2023/07/17 11:50:34;;;;;;;;;;;;;;;30.31;38.92;100832.67;102684;1297;62182;-81
2023/07/17 11:53:11;;;;;;;;;;;;;;;30.31;38.95;100833.42;102666;1297;62198;-81
2023/07/17 11:55:36;;;;;;;;;;;;;;;30.31;39.02;100831.08;102723;1297;63918;-81
2023/07/17 11:58:15;;;;;;;;;;;;;;;30.30;38.99;100827.80;102740;1297;63962;-81
2023/07/17 12:00:44;;;;;;;;;;;;;;;30.31;39.07;100818.92;102712;1297;62232;-81
2023/07/17 12:03:10;;;;;;;;;;;;;;;30.31;38.95;100820.14;102745;1291;62490;-81
2023/07/17 12:05:35;;;;;;;;;;;;;;;30.31;39.05;100816.91;102706;1291;62170;-81
2023/07/17 12:08:01;;;;;;;;;;;;;;;30.31;39.08;100814.86;102706;1297;62199;-81
2023/07/17 12:10:26;;;;;;;;;;;;;;;30.30;39.06;100811.33;102705;1291;62877;-81
2023/07/17 12:12:52;;;;;;;;;;;;;;;30.31;38.99;100811.09;102641;1295;62206;-81
2023/07/17 12:15:17;;;;;;;;;;;;;;;30.31;39.04;100811.02;102679;1296;62124;-81
2023/07/17 12:17:43;;;;;;;;;;;;;;;30.31;39.07;100809.73;102772;1297;63405;-81
2023/07/17 12:20:08;;;;;;;;;;;;;;;30.32;39.03;100809.19;103065;1297;62198;-81